Time;durP1;ratioP1;P1;durP2;ratioP2;P2;SDS_P1;SDS_P2;PMS_P1;PMS_P2;Temp;Humidity;BMP_temperature;BMP_pressure;BME280_temperature;BME280_humidity;BME280_pressure;Samples;Min_cycle;Max_cycle;Signal;HPM_P1;HPM_P2
2023/09/07 00:02:22;;;;;;;2.40;1.55;;;14.10;99.90;;;;;;4975382;28;20103;-68
2023/09/07 00:04:49;;;;;;;3.30;1.85;;;14.20;99.90;;;;;;4973206;28;20126;-69
2023/09/07 00:07:15;;;;;;;1.80;1.60;;;14.10;99.90;;;;;;4966067;28;20486;-69
2023/09/07 00:09:41;;;;;;;2.85;1.63;;;14.10;99.90;;;;;;4973302;28;20052;-69
2023/09/07 00:12:06;;;;;;;1.95;1.38;;;14.00;99.90;;;;;;4972838;28;20567;-69
2023/09/07 00:14:32;;;;;;;4.68;1.65;;;13.90;99.90;;;;;;4976613;28;20039;-69
2023/09/07 00:16:58;;;;;;;1.27;1.17;;;13.90;99.90;;;;;;4972936;28;20110;-69
2023/09/07 00:19:23;;;;;;;2.90;1.77;;;13.80;99.90;;;;;;4970770;28;20054;-68
2023/09/07 00:21:51;;;;;;;1.83;1.58;;;13.90;99.90;;;;;;4969833;28;20483;-68
2023/09/07 00:24:17;;;;;;;2.10;1.77;;;13.90;99.90;;;;;;4971268;28;20042;-64
2023/09/07 00:26:43;;;;;;;2.40;1.70;;;13.90;99.90;;;;;;4971916;28;20496;-65
2023/09/07 00:29:09;;;;;;;3.50;1.77;;;13.80;99.90;;;;;;4974303;28;20101;-64
2023/09/07 00:31:34;;;;;;;2.25;1.90;;;13.80;99.90;;;;;;4967741;28;20093;-64
2023/09/07 00:34:00;;;;;;;2.50;1.60;;;13.70;99.90;;;;;;4973911;28;20132;-64
2023/09/07 00:36:26;;;;;;;3.20;1.73;;;13.70;99.90;;;;;;4970871;28;20448;-64
2023/09/07 00:38:51;;;;;;;2.03;1.70;;;13.70;99.90;;;;;;4974440;28;20043;-64
2023/09/07 00:41:17;;;;;;;2.25;1.85;;;13.70;99.90;;;;;;4966592;28;20038;-64
2023/09/07 00:43:43;;;;;;;1.77;1.67;;;13.70;99.90;;;;;;4972397;28;20050;-64
2023/09/07 00:46:09;;;;;;;3.05;2.25;;;13.70;99.90;;;;;;4970078;28;20046;-64
2023/09/07 00:48:35;;;;;;;2.80;1.50;;;13.70;99.90;;;;;;4972721;28;20120;-64
2023/09/07 00:51:01;;;;;;;2.00;1.80;;;13.80;99.90;;;;;;4965144;28;20121;-64
2023/09/07 00:53:29;;;;;;;2.28;1.83;;;13.70;99.90;;;;;;4970568;28;20547;-64
2023/09/07 00:55:56;;;;;;;3.50;1.70;;;13.70;99.90;;;;;;4959134;28;20041;-64
2023/09/07 00:58:22;;;;;;;1.58;1.38;;;13.70;99.90;;;;;;4966753;28;20118;-64
2023/09/07 01:00:48;;;;;;;1.45;1.35;;;13.70;99.90;;;;;;4966162;28;20043;-63
2023/09/07 01:03:14;;;;;;;2.60;1.50;;;13.80;99.90;;;;;;4964743;28;20098;-64
2023/09/07 01:05:49;;;;;;;2.00;1.60;;;13.70;99.90;;;;;;4967885;28;20658;-64
2023/09/07 01:08:24;;;;;;;1.83;1.65;;;13.70;99.90;;;;;;4961637;28;20038;-64
2023/09/07 01:10:49;;;;;;;2.40;1.70;;;13.70;99.90;;;;;;4965379;28;20111;-64
2023/09/07 01:13:15;;;;;;;2.42;1.70;;;13.60;99.90;;;;;;4966353;28;20128;-64
2023/09/07 01:15:40;;;;;;;1.88;1.60;;;13.60;99.90;;;;;;4966935;28;20040;-64
2023/09/07 01:18:09;;;;;;;2.33;1.80;;;13.60;99.90;;;;;;4967285;28;20568;-65
2023/09/07 01:20:36;;;;;;;1.80;1.67;;;13.50;99.90;;;;;;4970423;28;20046;-64
2023/09/07 01:23:03;;;;;;;1.58;1.30;;;13.40;99.90;;;;;;4960879;28;20098;-64
2023/09/07 01:25:29;;;;;;;2.20;1.58;;;13.40;99.90;;;;;;4956263;28;20054;-64
2023/09/07 01:27:54;;;;;;;2.40;1.80;;;13.40;99.90;;;;;;4969027;28;20141;-64
2023/09/07 01:30:20;;;;;;;2.25;1.77;;;13.40;99.90;;;;;;4963288;28;20363;-64
2023/09/07 01:32:46;;;;;;;1.75;1.50;;;13.40;99.90;;;;;;4967527;28;20046;-64
2023/09/07 01:35:14;;;;;;;1.77;1.52;;;13.40;99.90;;;;;;4970848;28;20477;-64
2023/09/07 01:37:40;;;;;;;2.05;1.85;;;13.50;99.90;;;;;;4975519;28;20035;-68
2023/09/07 01:40:07;;;;;;;5.72;1.80;;;13.40;99.90;;;;;;4974790;28;20061;-68
2023/09/07 01:42:33;;;;;;;1.85;1.70;;;13.40;99.90;;;;;;4972178;28;20070;-68
2023/09/07 01:44:59;;;;;;;1.58;1.45;;;13.50;99.90;;;;;;4956821;28;20055;-69
2023/09/07 01:47:24;;;;;;;2.58;1.75;;;13.40;99.90;;;;;;4968370;28;20034;-68
2023/09/07 01:49:50;;;;;;;1.83;1.60;;;13.40;99.90;;;;;;4973121;28;20133;-68
2023/09/07 01:52:15;;;;;;;1.67;1.50;;;13.40;99.90;;;;;;4971937;28;20055;-69
2023/09/07 01:54:41;;;;;;;2.70;1.83;;;13.30;99.90;;;;;;4973230;28;20538;-68
2023/09/07 01:57:07;;;;;;;2.75;1.70;;;13.40;99.90;;;;;;4976611;28;20474;-68
2023/09/07 01:59:32;;;;;;;2.15;1.95;;;13.40;99.90;;;;;;4978397;28;20492;-69
2023/09/07 02:01:58;;;;;;;2.72;1.63;;;13.40;99.90;;;;;;4976133;28;20030;-69
2023/09/07 02:04:24;;;;;;;2.65;1.35;;;13.40;99.90;;;;;;4977796;28;20284;-68
2023/09/07 02:06:49;;;;;;;2.75;1.35;;;13.30;99.90;;;;;;4975114;28;20055;-69
2023/09/07 02:09:15;;;;;;;2.17;1.60;;;13.30;99.90;;;;;;4976518;28;20117;-69
2023/09/07 02:11:41;;;;;;;1.50;1.35;;;13.20;99.90;;;;;;4978923;28;20341;-69
2023/09/07 02:14:06;;;;;;;2.00;1.73;;;13.10;99.90;;;;;;4979933;28;20684;-69
2023/09/07 02:16:32;;;;;;;1.90;1.70;;;13.10;99.90;;;;;;4977682;28;20103;-69
2023/09/07 02:19:06;;;;;;;2.83;1.48;;;13.10;99.90;;;;;;4978385;28;20049;-69
2023/09/07 02:21:32;;;;;;;1.77;1.30;;;13.10;99.90;;;;;;4972095;28;20038;-69
2023/09/07 02:23:58;;;;;;;1.58;1.42;;;13.10;99.90;;;;;;4974579;28;20101;-69
2023/09/07 02:26:24;;;;;;;1.98;1.65;;;13.10;99.90;;;;;;4974198;28;20046;-69
2023/09/07 02:28:49;;;;;;;2.10;1.73;;;13.10;99.90;;;;;;4965036;28;20411;-69
2023/09/07 02:31:15;;;;;;;2.22;1.80;;;13.00;99.90;;;;;;4976173;28;20039;-69
2023/09/07 02:33:40;;;;;;;2.45;1.80;;;12.90;99.90;;;;;;4976418;28;20081;-65
2023/09/07 02:36:06;;;;;;;1.65;1.55;;;12.90;99.90;;;;;;4978016;28;20086;-64
2023/09/07 02:38:32;;;;;;;2.17;1.63;;;13.00;99.90;;;;;;4971477;28;20070;-65
2023/09/07 02:40:57;;;;;;;1.73;1.63;;;13.10;99.90;;;;;;4973356;28;20410;-65
2023/09/07 02:43:23;;;;;;;1.67;1.27;;;13.10;99.90;;;;;;4974867;28;20062;-65
2023/09/07 02:45:50;;;;;;;4.03;1.50;;;13.00;99.90;;;;;;4970974;28;20046;-65
2023/09/07 02:48:16;;;;;;;3.15;1.38;;;13.00;99.90;;;;;;4977580;28;20046;-65
2023/09/07 02:50:42;;;;;;;1.80;1.25;;;13.00;99.90;;;;;;4976867;28;20026;-65
2023/09/07 02:53:08;;;;;;;3.03;1.70;;;13.00;99.90;;;;;;4975912;28;20049;-65
2023/09/07 02:55:34;;;;;;;1.77;1.67;;;13.00;99.90;;;;;;4954853;28;20082;-64
2023/09/07 02:58:03;;;;;;;6.40;1.90;;;12.90;99.90;;;;;;4972522;28;20050;-64
2023/09/07 03:00:28;;;;;;;2.05;1.67;;;12.90;99.90;;;;;;4974045;28;20080;-65
2023/09/07 03:02:54;;;;;;;2.33;1.88;;;12.90;99.90;;;;;;4976405;28;20527;-65
2023/09/07 03:05:19;;;;;;;2.72;1.90;;;12.80;99.90;;;;;;4975631;28;20485;-64
2023/09/07 03:07:47;;;;;;;2.20;1.80;;;12.60;99.90;;;;;;4974995;28;20426;-64
2023/09/07 03:10:13;;;;;;;2.47;1.77;;;12.60;99.90;;;;;;4978280;28;20077;-64
2023/09/07 03:12:38;;;;;;;2.75;2.25;;;12.60;99.90;;;;;;4969708;28;20085;-65
2023/09/07 03:15:05;;;;;;;2.33;1.88;;;12.70;99.90;;;;;;4974833;28;20045;-64
2023/09/07 03:17:31;;;;;;;1.63;1.52;;;12.70;99.90;;;;;;4953935;28;20672;-64
2023/09/07 03:19:57;;;;;;;2.45;1.65;;;12.70;99.90;;;;;;4978029;28;20101;-65
2023/09/07 03:22:23;;;;;;;3.17;2.00;;;12.80;99.90;;;;;;4975986;28;20034;-64
2023/09/07 03:24:52;;;;;;;2.55;2.20;;;12.80;99.90;;;;;;4959763;28;20057;-65
2023/09/07 03:27:18;;;;;;;1.60;1.50;;;12.70;99.90;;;;;;4974698;28;20471;-65
2023/09/07 03:29:46;;;;;;;2.03;1.80;;;12.80;99.90;;;;;;4974747;28;20058;-65
2023/09/07 03:32:12;;;;;;;3.03;1.58;;;12.70;99.90;;;;;;4972029;28;20547;-64
2023/09/07 03:34:38;;;;;;;4.03;1.40;;;12.70;99.90;;;;;;4951563;28;20048;-65
2023/09/07 03:37:06;;;;;;;1.77;1.60;;;12.60;99.90;;;;;;4971026;28;20129;-64
2023/09/07 03:39:32;;;;;;;2.90;2.00;;;12.50;99.90;;;;;;4974500;28;20113;-65
2023/09/07 03:41:57;;;;;;;3.10;2.10;;;12.50;99.90;;;;;;4969375;28;20070;-64
2023/09/07 03:44:23;;;;;;;3.05;1.67;;;12.50;99.90;;;;;;4970888;28;20030;-65
2023/09/07 03:46:48;;;;;;;2.70;1.73;;;12.60;99.90;;;;;;4975906;28;20148;-68
2023/09/07 03:49:14;;;;;;;2.05;1.65;;;12.50;99.90;;;;;;4972805;28;20647;-69
2023/09/07 03:51:40;;;;;;;4.03;1.98;;;12.50;99.90;;;;;;4972964;28;20057;-69
2023/09/07 03:54:05;;;;;;;3.63;1.88;;;12.50;99.90;;;;;;4973875;28;20790;-69
2023/09/07 03:56:31;;;;;;;2.35;1.70;;;12.60;99.90;;;;;;4975154;28;20125;-68
2023/09/07 03:58:56;;;;;;;2.70;1.35;;;12.60;99.90;;;;;;4971885;28;20058;-69
2023/09/07 04:01:22;;;;;;;2.00;1.80;;;12.50;99.90;;;;;;4968704;28;20069;-68
2023/09/07 04:03:48;;;;;;;2.05;1.67;;;12.50;99.90;;;;;;4972877;28;20038;-68
2023/09/07 04:06:13;;;;;;;2.03;1.67;;;12.50;99.90;;;;;;4970694;28;20479;-64
2023/09/07 04:08:39;;;;;;;1.88;1.77;;;12.40;99.90;;;;;;4978414;28;20038;-64
2023/09/07 04:11:05;;;;;;;3.95;2.00;;;12.40;99.90;;;;;;4970879;28;20038;-64
2023/09/07 04:13:32;;;;;;;3.88;2.10;;;12.30;99.90;;;;;;4958811;28;20089;-64
2023/09/07 04:15:57;;;;;;;4.18;2.80;;;12.30;99.90;;;;;;4972272;28;20034;-64
2023/09/07 04:18:23;;;;;;;6.13;2.75;;;12.30;99.90;;;;;;4967813;28;20033;-65
2023/09/07 04:20:49;;;;;;;1.85;1.65;;;12.30;99.90;;;;;;4973946;28;20048;-65
2023/09/07 04:23:15;;;;;;;2.03;1.83;;;12.30;99.90;;;;;;4974350;28;20562;-68
2023/09/07 04:25:41;;;;;;;4.15;2.05;;;12.40;99.90;;;;;;4971454;28;20117;-68
2023/09/07 04:28:07;;;;;;;1.75;1.63;;;12.40;99.90;;;;;;4974708;28;20633;-68
2023/09/07 04:30:40;;;;;;;2.25;1.40;;;12.40;99.90;;;;;;4970297;28;20527;-68
2023/09/07 04:33:06;;;;;;;9.70;2.40;;;12.40;99.90;;;;;;4974609;28;20034;-69
2023/09/07 04:35:33;;;;;;;1.83;1.70;;;12.30;99.90;;;;;;4976074;28;20504;-68
2023/09/07 04:37:59;;;;;;;6.90;2.20;;;12.30;99.90;;;;;;4974133;28;20164;-68
2023/09/07 04:40:25;;;;;;;1.98;1.70;;;12.30;99.90;;;;;;4972528;28;20125;-68
2023/09/07 04:42:51;;;;;;;2.25;1.73;;;12.30;99.90;;;;;;4973468;28;20149;-69
2023/09/07 04:45:17;;;;;;;2.38;1.90;;;12.20;99.90;;;;;;4975360;28;20052;-68
2023/09/07 04:47:43;;;;;;;4.47;2.00;;;12.20;99.90;;;;;;4951891;28;20935;-69
2023/09/07 04:50:09;;;;;;;3.95;2.30;;;12.20;99.90;;;;;;4974911;28;20038;-68
2023/09/07 04:52:35;;;;;;;3.92;2.45;;;12.30;99.90;;;;;;4972032;28;20527;-68
2023/09/07 04:55:01;;;;;;;2.92;2.17;;;12.30;99.90;;;;;;4955731;28;20090;-68
2023/09/07 04:57:26;;;;;;;3.40;2.38;;;12.40;99.90;;;;;;4972467;28;20165;-68
2023/09/07 04:59:52;;;;;;;3.05;2.22;;;12.50;99.90;;;;;;4970915;28;20875;-68
2023/09/07 05:02:18;;;;;;;2.28;2.08;;;12.60;99.90;;;;;;4970584;28;20041;-68
2023/09/07 05:04:44;;;;;;;2.38;2.03;;;12.70;99.90;;;;;;4966194;28;20041;-69
2023/09/07 05:07:10;;;;;;;5.55;2.03;;;12.80;99.90;;;;;;4964836;28;20132;-68
2023/09/07 05:09:36;;;;;;;8.77;2.42;;;13.00;99.90;;;;;;4965442;28;20039;-68
2023/09/07 05:12:01;;;;;;;6.18;2.30;;;13.00;99.90;;;;;;4968291;28;20401;-68
2023/09/07 05:14:27;;;;;;;3.35;2.28;;;13.10;99.90;;;;;;4969012;28;20030;-68
2023/09/07 05:16:53;;;;;;;3.88;2.50;;;13.30;99.90;;;;;;4966828;28;20522;-69
2023/09/07 05:19:18;;;;;;;3.17;2.40;;;13.40;99.90;;;;;;4968148;28;20061;-68
2023/09/07 05:21:44;;;;;;;7.15;2.30;;;13.60;99.90;;;;;;4952196;28;20042;-68
2023/09/07 05:24:09;;;;;;;5.05;2.55;;;13.70;99.90;;;;;;4969179;28;20043;-68
2023/09/07 05:26:35;;;;;;;8.52;2.75;;;13.90;99.90;;;;;;4966170;28;20078;-68
2023/09/07 05:29:01;;;;;;;3.13;2.10;;;14.10;99.90;;;;;;4960725;28;20126;-68
2023/09/07 05:31:26;;;;;;;3.92;2.88;;;14.20;99.90;;;;;;4957359;28;20121;-68
2023/09/07 05:33:52;;;;;;;11.07;2.70;;;14.40;99.90;;;;;;4967781;28;20049;-68
2023/09/07 05:36:18;;;;;;;4.68;2.40;;;14.50;99.90;;;;;;4959040;28;20038;-69
2023/09/07 05:38:44;;;;;;;6.90;2.80;;;14.70;99.90;;;;;;4960015;28;21557;-68
2023/09/07 05:41:10;;;;;;;3.08;2.28;;;14.90;99.90;;;;;;4948971;28;20038;-70
2023/09/07 05:43:35;;;;;;;7.50;2.65;;;15.00;99.90;;;;;;4960926;28;20034;-69
2023/09/07 05:46:01;;;;;;;2.78;2.30;;;15.20;99.90;;;;;;4952408;28;20132;-68
2023/09/07 05:48:27;;;;;;;6.22;2.83;;;15.40;99.90;;;;;;4958204;28;20046;-68
2023/09/07 05:50:53;;;;;;;8.18;2.50;;;15.60;99.90;;;;;;4967778;28;20050;-68
2023/09/07 05:53:20;;;;;;;9.05;2.58;;;15.80;99.90;;;;;;4964310;28;20082;-68
2023/09/07 05:55:48;;;;;;;4.05;2.40;;;16.00;99.90;;;;;;4959637;28;20047;-65
2023/09/07 05:58:14;;;;;;;16.17;3.17;;;16.10;99.90;;;;;;4965141;28;20034;-64
2023/09/07 06:00:40;;;;;;;8.45;3.10;;;16.30;99.90;;;;;;4960033;28;20047;-65
2023/09/07 06:03:07;;;;;;;9.57;3.10;;;16.50;99.90;;;;;;4965162;28;20129;-64
2023/09/07 06:05:38;;;;;;;7.25;3.20;;;16.60;99.90;;;;;;4957221;28;20062;-64
2023/09/07 06:08:04;;;;;;;3.65;3.20;;;16.70;99.90;;;;;;4961884;28;20034;-65
2023/09/07 06:10:30;;;;;;;4.18;3.22;;;16.90;99.90;;;;;;4958611;28;20031;-64
2023/09/07 06:12:56;;;;;;;5.38;2.95;;;17.10;99.90;;;;;;4966435;28;20045;-64
2023/09/07 06:15:22;;;;;;;6.78;3.63;;;17.30;99.90;;;;;;4966849;28;20038;-64
2023/09/07 06:17:48;;;;;;;4.50;2.95;;;17.50;99.90;;;;;;4957351;28;20483;-64
2023/09/07 06:20:13;;;;;;;4.70;3.17;;;17.60;99.90;;;;;;4960141;28;20619;-64
2023/09/07 06:22:39;;;;;;;3.03;2.72;;;17.80;99.90;;;;;;4975332;28;20548;-64
2023/09/07 06:25:05;;;;;;;4.65;3.05;;;17.90;99.90;;;;;;4970633;28;21507;-65
2023/09/07 06:27:31;;;;;;;3.67;2.85;;;18.10;99.90;;;;;;4963062;28;20049;-65
2023/09/07 06:29:56;;;;;;;3.35;2.92;;;18.30;99.90;;;;;;4965580;28;20042;-64
2023/09/07 06:32:22;;;;;;;3.20;2.58;;;18.40;99.90;;;;;;4964520;28;20064;-64
2023/09/07 06:34:48;;;;;;;3.72;3.08;;;18.70;99.90;;;;;;4966968;28;20042;-64
2023/09/07 06:37:14;;;;;;;3.80;2.80;;;18.90;99.90;;;;;;4958677;28;20042;-65
2023/09/07 06:39:42;;;;;;;3.58;2.75;;;18.90;99.90;;;;;;4945290;28;20034;-64
2023/09/07 06:42:09;;;;;;;3.40;2.65;;;19.10;99.90;;;;;;4963129;28;20459;-65
2023/09/07 06:44:35;;;;;;;3.05;2.72;;;19.30;99.90;;;;;;4967265;28;20105;-65
2023/09/07 06:47:00;;;;;;;4.43;2.40;;;19.50;99.90;;;;;;4967707;28;20050;-65
2023/09/07 06:49:29;;;;;;;3.65;2.45;;;19.70;99.90;;;;;;4964268;28;20030;-65
2023/09/07 06:51:55;;;;;;;2.80;2.60;;;19.90;99.90;;;;;;4962164;28;20038;-69
2023/09/07 06:54:21;;;;;;;2.85;2.50;;;20.10;99.90;;;;;;4963429;28;20034;-68
2023/09/07 06:56:47;;;;;;;4.88;2.58;;;20.30;99.90;;;;;;4953449;28;20097;-68
2023/09/07 06:59:13;;;;;;;4.53;2.75;;;20.40;99.90;;;;;;4970174;28;20069;-69
2023/09/07 07:01:38;;;;;;;3.97;2.55;;;20.50;99.90;;;;;;4963678;28;25518;-68
2023/09/07 07:04:04;;;;;;;3.58;2.38;;;20.70;99.90;;;;;;4963701;28;20050;-69
2023/09/07 07:06:29;;;;;;;2.97;2.38;;;20.90;99.90;;;;;;4959313;28;20047;-69
2023/09/07 07:08:55;;;;;;;4.32;3.00;;;20.90;99.90;;;;;;4962838;28;20050;-69
2023/09/07 07:11:21;;;;;;;11.23;3.80;;;21.00;99.90;;;;;;4965458;28;20043;-69
2023/09/07 07:13:46;;;;;;;4.20;2.63;;;21.20;99.90;;;;;;4964388;28;20085;-69
2023/09/07 07:16:13;;;;;;;4.97;2.25;;;21.40;99.90;;;;;;4962484;28;20038;-69
2023/09/07 07:18:39;;;;;;;8.10;2.50;;;21.60;99.90;;;;;;4968814;28;20034;-69
2023/09/07 07:21:05;;;;;;;6.53;2.55;;;21.50;99.90;;;;;;4968455;28;20338;-69
2023/09/07 07:23:31;;;;;;;7.22;3.53;;;21.70;99.90;;;;;;4972934;28;20045;-69
2023/09/07 07:25:57;;;;;;;3.55;2.40;;;21.70;99.90;;;;;;4961910;28;20038;-69
2023/09/07 07:28:22;;;;;;;3.63;2.55;;;21.90;99.90;;;;;;4963896;28;20522;-65
2023/09/07 07:30:48;;;;;;;4.35;2.92;;;22.00;99.90;;;;;;4964605;28;20125;-65
2023/09/07 07:33:14;;;;;;;3.40;2.53;;;22.20;99.90;;;;;;4969154;28;20047;-65
2023/09/07 07:35:40;;;;;;;2.85;2.28;;;22.30;99.90;;;;;;4966081;28;20046;-65
2023/09/07 07:38:07;;;;;;;3.88;2.75;;;22.20;99.90;;;;;;4962061;28;20041;-65
2023/09/07 07:40:33;;;;;;;4.00;2.60;;;22.20;99.90;;;;;;4963519;28;20590;-65
2023/09/07 07:42:59;;;;;;;3.83;2.42;;;22.40;99.90;;;;;;4961667;28;20050;-65
2023/09/07 07:45:25;;;;;;;5.38;2.25;;;22.60;99.90;;;;;;4964742;28;20060;-66
2023/09/07 07:47:52;;;;;;;2.83;2.47;;;22.60;99.90;;;;;;4962816;28;20063;-69
2023/09/07 07:50:18;;;;;;;3.00;2.50;;;22.60;99.90;;;;;;4945557;28;20546;-68
2023/09/07 07:52:43;;;;;;;3.45;2.80;;;22.60;99.90;;;;;;4958127;28;20043;-69
2023/09/07 07:55:10;;;;;;;4.38;2.55;;;22.80;99.90;;;;;;4964624;28;20136;-69
2023/09/07 07:57:36;;;;;;;3.85;2.55;;;22.80;99.90;;;;;;4963534;28;20451;-69
2023/09/07 08:00:04;;;;;;;2.47;2.28;;;22.90;99.90;;;;;;4956162;28;20056;-70
2023/09/07 08:02:29;;;;;;;4.13;2.78;;;23.00;99.90;;;;;;4941886;28;20098;-69
2023/09/07 08:04:55;;;;;;;5.45;2.95;;;23.00;99.90;;;;;;4959275;28;20075;-65
2023/09/07 08:07:21;;;;;;;6.20;2.30;;;22.90;99.90;;;;;;4960751;28;20042;-66
2023/09/07 08:09:47;;;;;;;4.82;2.85;;;22.90;99.90;;;;;;4961110;28;20037;-66
2023/09/07 08:12:13;;;;;;;3.47;2.63;;;22.90;99.90;;;;;;4963147;28;20065;-66
2023/09/07 08:14:38;;;;;;;4.00;2.55;;;23.00;99.90;;;;;;4958964;28;20087;-66
2023/09/07 08:17:04;;;;;;;2.63;2.15;;;23.10;99.90;;;;;;4963628;28;20779;-66
2023/09/07 08:19:30;;;;;;;3.72;3.28;;;23.20;99.90;;;;;;4956020;28;20137;-65
2023/09/07 08:21:58;;;;;;;2.70;2.10;;;23.20;99.90;;;;;;4961393;28;21008;-65
2023/09/07 08:24:24;;;;;;;2.70;2.28;;;23.10;99.90;;;;;;4951587;28;20046;-65
2023/09/07 08:26:54;;;;;;;3.35;2.72;;;23.10;99.90;;;;;;4967712;28;20046;-65
2023/09/07 08:29:26;;;;;;;5.25;3.00;;;23.20;99.90;;;;;;4958759;28;20043;-65
2023/09/07 08:31:52;;;;;;;8.65;2.90;;;23.40;99.90;;;;;;4945968;28;20180;-66
2023/09/07 08:34:21;;;;;;;6.45;2.88;;;23.40;99.90;;;;;;4962628;28;20042;-65
2023/09/07 08:36:49;;;;;;;3.47;2.30;;;23.50;99.90;;;;;;4959492;28;20112;-66
2023/09/07 08:39:15;;;;;;;3.58;2.40;;;23.40;99.90;;;;;;4961583;28;20463;-66
2023/09/07 08:41:43;;;;;;;3.78;2.67;;;23.60;99.90;;;;;;4960596;28;20047;-65
2023/09/07 08:44:17;;;;;;;2.92;2.70;;;23.60;99.90;;;;;;4960795;28;20605;-65
2023/09/07 08:46:44;;;;;;;4.75;2.75;;;23.60;99.90;;;;;;4964820;28;20095;-66
2023/09/07 08:49:12;;;;;;;4.28;2.75;;;23.60;99.90;;;;;;4955421;28;20589;-66
2023/09/07 08:51:38;;;;;;;2.78;2.40;;;23.60;99.90;;;;;;4964217;28;20046;-65
2023/09/07 08:54:08;;;;;;;4.38;2.38;;;23.50;99.90;;;;;;4947971;28;21008;-65
2023/09/07 08:56:34;;;;;;;3.65;2.47;;;23.40;99.90;;;;;;4961108;28;20041;-65
2023/09/07 08:58:59;;;;;;;3.20;2.85;;;23.60;99.90;;;;;;4957848;28;20062;-65
2023/09/07 09:01:25;;;;;;;4.00;2.55;;;23.70;99.90;;;;;;4955021;28;20117;-65
2023/09/07 09:03:51;;;;;;;3.63;2.70;;;23.80;99.90;;;;;;4955120;28;20053;-66
2023/09/07 09:06:24;;;;;;;6.47;2.70;;;23.90;99.90;;;;;;4963313;28;20145;-65
2023/09/07 09:08:57;;;;;;;3.60;2.60;;;23.80;99.90;;;;;;4956194;28;20034;-63
2023/09/07 09:11:24;;;;;;;4.35;2.70;;;23.80;99.90;;;;;;4959923;28;20187;-63
2023/09/07 09:13:52;;;;;;;3.38;2.72;;;23.80;99.90;;;;;;4960244;28;20088;-65
2023/09/07 09:16:18;;;;;;;3.53;2.30;;;23.90;99.90;;;;;;4965207;28;20818;-65
2023/09/07 09:18:58;;;;;;;8.35;2.35;;;23.90;99.90;;;;;;4969174;28;20429;-65
2023/09/07 09:21:25;;;;;;;5.75;2.67;;;23.90;99.90;;;;;;4942755;28;20133;-65
2023/09/07 09:23:54;;;;;;;4.43;2.72;;;23.90;99.90;;;;;;4962021;28;20054;-65
2023/09/07 09:26:21;;;;;;;2.58;2.05;;;24.00;99.90;;;;;;4958964;28;20108;-65
2023/09/07 09:28:47;;;;;;;2.95;2.30;;;24.10;99.90;;;;;;4963379;28;20102;-65
2023/09/07 09:31:14;;;;;;;2.80;2.53;;;24.10;99.90;;;;;;4960554;28;20121;-65
2023/09/07 09:33:41;;;;;;;2.85;2.53;;;24.20;99.90;;;;;;4973827;28;20038;-65
2023/09/07 09:36:07;;;;;;;2.47;2.28;;;24.30;99.90;;;;;;4964787;28;20037;-70
2023/09/07 09:38:34;;;;;;;2.25;2.05;;;24.40;99.90;;;;;;4969409;28;20106;-69
2023/09/07 09:41:00;;;;;;;4.30;2.45;;;24.50;99.90;;;;;;4961258;28;20713;-69
2023/09/07 09:43:26;;;;;;;4.00;2.42;;;24.60;99.90;;;;;;4959433;28;20039;-69
2023/09/07 09:45:52;;;;;;;3.25;2.20;;;24.70;99.90;;;;;;4959252;28;20526;-69
2023/09/07 09:48:21;;;;;;;6.18;2.38;;;24.70;99.90;;;;;;4967436;28;20058;-69
2023/09/07 09:50:48;;;;;;;18.15;3.30;;;24.70;99.90;;;;;;4956591;28;20096;-69
2023/09/07 09:53:20;;;;;;;2.67;2.17;;;24.80;99.90;;;;;;4969903;28;20042;-69
2023/09/07 09:55:50;;;;;;;2.85;2.65;;;24.80;99.90;;;;;;4967176;28;20043;-69
2023/09/07 09:58:16;;;;;;;4.03;2.30;;;24.90;99.90;;;;;;4967802;28;20097;-69
2023/09/07 10:00:44;;;;;;;3.28;2.38;;;25.00;99.90;;;;;;4969126;28;20570;-69
2023/09/07 10:03:12;;;;;;;3.03;2.03;;;25.00;99.90;;;;;;4975475;28;20381;-69
2023/09/07 10:05:38;;;;;;;2.22;2.03;;;25.00;99.90;;;;;;4967116;28;20100;-69
2023/09/07 10:08:09;;;;;;;8.30;2.80;;;25.00;99.90;;;;;;4972788;28;20066;-69
2023/09/07 10:10:36;;;;;;;3.30;2.37;;;25.10;99.90;;;;;;4971498;28;20050;-69
2023/09/07 10:13:03;;;;;;;4.43;2.30;;;25.20;99.90;;;;;;4966858;28;20044;-69
2023/09/07 10:15:30;;;;;;;3.38;2.80;;;25.30;99.90;;;;;;4971363;28;20057;-69
2023/09/07 10:18:05;;;;;;;3.63;2.33;;;25.30;99.90;;;;;;4969561;28;20107;-69
2023/09/07 10:20:48;;;;;;;3.63;2.45;;;25.30;99.90;;;;;;4970460;28;20043;-69
2023/09/07 10:23:14;;;;;;;2.53;2.33;;;25.30;99.90;;;;;;4974808;28;20029;-69
2023/09/07 10:25:40;;;;;;;2.78;2.35;;;25.50;99.90;;;;;;4967489;28;20046;-69
2023/09/07 10:28:24;;;;;;;3.72;2.63;;;25.60;99.90;;;;;;4971015;28;20399;-70
2023/09/07 10:31:05;;;;;;;3.22;2.63;;;25.60;99.90;;;;;;4964290;28;20111;-69
2023/09/07 10:33:35;;;;;;;3.17;2.65;;;25.70;99.90;;;;;;4972701;28;20054;-69
2023/09/07 10:36:02;;;;;;;4.97;2.25;;;25.70;99.90;;;;;;4967378;28;20034;-69
2023/09/07 10:38:28;;;;;;;5.35;2.42;;;25.70;99.90;;;;;;4959351;28;20042;-69
2023/09/07 10:40:58;;;;;;;2.55;2.20;;;25.70;99.90;;;;;;4971104;28;20065;-69
2023/09/07 10:43:29;;;;;;;2.35;2.15;;;25.90;99.90;;;;;;4968701;28;20033;-69
2023/09/07 10:45:56;;;;;;;2.33;2.13;;;26.00;99.90;;;;;;4958890;28;20440;-69
2023/09/07 10:48:23;;;;;;;3.13;2.58;;;26.10;99.90;;;;;;4964646;28;20088;-69
2023/09/07 10:50:51;;;;;;;7.10;2.30;;;26.10;99.90;;;;;;4952404;28;20043;-66
2023/09/07 10:53:31;;;;;;;3.80;2.15;;;26.20;99.90;;;;;;4973619;28;20045;-64
2023/09/07 10:56:05;;;;;;;3.88;2.38;;;26.10;99.90;;;;;;4965134;28;20054;-64
2023/09/07 10:58:34;;;;;;;3.67;2.33;;;26.20;99.90;;;;;;4975153;28;20443;-65
2023/09/07 11:01:01;;;;;;;2.70;2.30;;;26.30;99.90;;;;;;4973751;28;20042;-64
2023/09/07 11:03:27;;;;;;;2.47;2.00;;;26.30;99.70;;;;;;4978011;28;20037;-64
2023/09/07 11:06:19;;;;;;;2.67;2.47;;;26.30;99.90;;;;;;4974634;28;20051;-64
2023/09/07 11:08:45;;;;;;;3.05;2.33;;;26.40;99.90;;;;;;4970635;28;20487;-65
2023/09/07 11:11:12;;;;;;;5.25;1.88;;;26.40;98.30;;;;;;4979281;28;20380;-64
2023/09/07 11:13:37;;;;;;;2.40;2.17;;;26.40;98.40;;;;;;4963231;28;21273;-64
2023/09/07 11:16:06;;;;;;;2.75;2.33;;;26.30;99.00;;;;;;4974895;28;20042;-64
2023/09/07 11:18:35;;;;;;;4.10;2.33;;;26.30;97.90;;;;;;4968843;28;20046;-64
2023/09/07 11:21:03;;;;;;;2.35;2.05;;;26.30;99.10;;;;;;4978199;28;20069;-64
2023/09/07 11:23:37;;;;;;;3.35;2.75;;;26.50;99.30;;;;;;4973806;28;20428;-65
2023/09/07 11:26:08;;;;;;;2.55;2.33;;;26.60;99.20;;;;;;4975224;28;20039;-64
2023/09/07 11:28:33;;;;;;;4.13;2.97;;;26.60;97.90;;;;;;4973756;28;20475;-64
2023/09/07 11:30:59;;;;;;;2.53;2.22;;;26.70;97.40;;;;;;4973331;28;20508;-65
2023/09/07 11:33:27;;;;;;;4.63;2.30;;;26.60;96.70;;;;;;4975464;28;20058;-65
2023/09/07 11:35:55;;;;;;;4.93;2.80;;;26.60;97.00;;;;;;4978034;28;20542;-64
2023/09/07 11:38:22;;;;;;;2.65;2.45;;;26.70;97.30;;;;;;4969949;28;20035;-64
2023/09/07 11:40:47;;;;;;;2.55;2.35;;;26.90;97.10;;;;;;4977899;28;20046;-64
2023/09/07 11:43:18;;;;;;;2.92;2.10;;;26.90;96.30;;;;;;4975357;28;20458;-64
2023/09/07 11:45:46;;;;;;;2.20;2.00;;;26.80;96.50;;;;;;4977471;28;20495;-64
2023/09/07 11:48:11;;;;;;;3.03;2.00;;;26.90;97.00;;;;;;4976163;28;20057;-64
2023/09/07 11:50:38;;;;;;;4.00;2.30;;;26.90;96.90;;;;;;4971213;28;20042;-64
2023/09/07 11:53:05;;;;;;;3.13;2.83;;;27.00;97.10;;;;;;4974421;28;20072;-64
2023/09/07 11:55:31;;;;;;;3.42;2.20;;;27.00;95.40;;;;;;4974975;28;20151;-64
2023/09/07 11:57:57;;;;;;;4.32;2.38;;;26.90;95.80;;;;;;4968915;28;20686;-64
2023/09/07 12:00:23;;;;;;;3.45;2.30;;;26.90;95.80;;;;;;4958325;28;20415;-64
2023/09/07 12:02:49;;;;;;;2.60;2.40;;;26.80;97.20;;;;;;4972190;28;20783;-64
2023/09/07 12:05:15;;;;;;;2.63;2.28;;;26.80;96.90;;;;;;4974455;28;20065;-64
2023/09/07 12:07:44;;;;;;;3.15;2.42;;;26.90;96.00;;;;;;4973250;28;20030;-64
2023/09/07 12:10:11;;;;;;;4.40;2.20;;;27.00;96.30;;;;;;4973782;28;20451;-64
2023/09/07 12:12:37;;;;;;;2.85;2.20;;;27.00;96.30;;;;;;4978422;28;21100;-64
2023/09/07 12:15:04;;;;;;;2.58;2.35;;;27.00;95.90;;;;;;4969477;28;20034;-64
2023/09/07 12:17:30;;;;;;;3.28;2.13;;;26.90;96.00;;;;;;4971667;28;20038;-64
2023/09/07 12:19:56;;;;;;;4.82;2.35;;;27.00;95.20;;;;;;4971602;28;20042;-64
2023/09/07 12:22:22;;;;;;;2.65;2.45;;;26.90;96.10;;;;;;4973693;28;20065;-64
2023/09/07 12:24:48;;;;;;;2.88;2.20;;;27.00;96.00;;;;;;4968012;28;20046;-64
2023/09/07 12:27:13;;;;;;;2.67;2.17;;;27.10;95.50;;;;;;4970710;28;20377;-65
2023/09/07 12:29:39;;;;;;;2.97;2.08;;;27.10;95.50;;;;;;4973305;28;20034;-64
2023/09/07 12:32:05;;;;;;;2.63;2.00;;;27.20;95.90;;;;;;4969000;28;20060;-64
2023/09/07 12:34:31;;;;;;;3.47;2.65;;;27.30;95.60;;;;;;4969759;28;20132;-64
2023/09/07 12:36:56;;;;;;;3.28;2.45;;;27.20;94.60;;;;;;4973081;28;20481;-65
2023/09/07 12:39:22;;;;;;;2.50;2.30;;;27.10;94.40;;;;;;4975033;28;20115;-64
2023/09/07 12:41:48;;;;;;;2.88;2.47;;;27.10;94.70;;;;;;4972635;28;20038;-64
2023/09/07 12:44:13;;;;;;;2.55;2.33;;;27.20;94.80;;;;;;4958642;28;21280;-65